sensor_id;sensor_type;location;lat;lon;timestamp;P1;durP1;ratioP1;P2;durP2;ratioP2
60032;SDS011;45905;50.570;10.428;2023-05-02T00:02:19;2.43;;;2.00;;
60032;SDS011;45905;50.570;10.428;2023-05-02T00:04:47;2.40;;;2.00;;
60032;SDS011;45905;50.570;10.428;2023-05-02T00:07:14;3.00;;;2.50;;
60032;SDS011;45905;50.570;10.428;2023-05-02T00:09:41;3.40;;;2.17;;
60032;SDS011;45905;50.570;10.428;2023-05-02T00:12:08;2.73;;;2.03;;
60032;SDS011;45905;50.570;10.428;2023-05-02T00:14:36;2.77;;;2.37;;
60032;SDS011;45905;50.570;10.428;2023-05-02T00:17:03;3.33;;;2.80;;
60032;SDS011;45905;50.570;10.428;2023-05-02T00:19:31;2.50;;;2.13;;
60032;SDS011;45905;50.570;10.428;2023-05-02T00:22:03;2.67;;;2.40;;
60032;SDS011;45905;50.570;10.428;2023-05-02T00:24:31;3.93;;;2.73;;
60032;SDS011;45905;50.570;10.428;2023-05-02T00:26:58;3.17;;;2.53;;
60032;SDS011;45905;50.570;10.428;2023-05-02T00:29:26;3.00;;;2.33;;
60032;SDS011;45905;50.570;10.428;2023-05-02T00:31:53;9.23;;;2.80;;
60032;SDS011;45905;50.570;10.428;2023-05-02T00:34:21;3.17;;;2.87;;
60032;SDS011;45905;50.570;10.428;2023-05-02T00:36:49;4.20;;;2.83;;
60032;SDS011;45905;50.570;10.428;2023-05-02T00:39:16;5.07;;;3.27;;
60032;SDS011;45905;50.570;10.428;2023-05-02T00:41:44;3.50;;;2.13;;
60032;SDS011;45905;50.570;10.428;2023-05-02T00:44:11;3.90;;;3.10;;
60032;SDS011;45905;50.570;10.428;2023-05-02T00:46:39;6.67;;;2.77;;
60032;SDS011;45905;50.570;10.428;2023-05-02T00:49:06;3.33;;;2.80;;
60032;SDS011;45905;50.570;10.428;2023-05-02T00:51:33;7.10;;;2.67;;
60032;SDS011;45905;50.570;10.428;2023-05-02T00:54:01;3.10;;;1.83;;
60032;SDS011;45905;50.570;10.428;2023-05-02T00:56:29;4.00;;;2.40;;
60032;SDS011;45905;50.570;10.428;2023-05-02T00:58:56;5.40;;;2.13;;
60032;SDS011;45905;50.570;10.428;2023-05-02T01:04:55;3.47;;;2.07;;
60032;SDS011;45905;50.570;10.428;2023-05-02T01:07:59;4.90;;;2.10;;
60032;SDS011;45905;50.570;10.428;2023-05-02T01:15:45;2.30;;;2.10;;
60032;SDS011;45905;50.570;10.428;2023-05-02T01:18:18;3.50;;;2.80;;
60032;SDS011;45905;50.570;10.428;2023-05-02T01:20:52;4.90;;;2.13;;
60032;SDS011;45905;50.570;10.428;2023-05-02T01:26:15;4.20;;;3.07;;
60032;SDS011;45905;50.570;10.428;2023-05-02T01:28:56;2.83;;;2.47;;
60032;SDS011;45905;50.570;10.428;2023-05-02T01:31:40;2.23;;;2.03;;
60032;SDS011;45905;50.570;10.428;2023-05-02T01:34:11;3.00;;;2.50;;
60032;SDS011;45905;50.570;10.428;2023-05-02T01:36:42;3.87;;;2.10;;
60032;SDS011;45905;50.570;10.428;2023-05-02T01:39:13;3.97;;;2.37;;
60032;SDS011;45905;50.570;10.428;2023-05-02T01:41:47;10.50;;;2.20;;
60032;SDS011;45905;50.570;10.428;2023-05-02T01:44:17;2.40;;;2.00;;
60032;SDS011;45905;50.570;10.428;2023-05-02T01:46:48;6.80;;;2.30;;
60032;SDS011;45905;50.570;10.428;2023-05-02T01:49:18;4.00;;;2.50;;
60032;SDS011;45905;50.570;10.428;2023-05-02T01:51:48;3.17;;;1.97;;
60032;SDS011;45905;50.570;10.428;2023-05-02T01:54:18;2.03;;;1.93;;
60032;SDS011;45905;50.570;10.428;2023-05-02T01:56:49;4.40;;;2.00;;
60032;SDS011;45905;50.570;10.428;2023-05-02T01:59:18;2.60;;;1.87;;
60032;SDS011;45905;50.570;10.428;2023-05-02T02:01:49;2.50;;;2.33;;
60032;SDS011;45905;50.570;10.428;2023-05-02T02:04:19;2.70;;;2.27;;
60032;SDS011;45905;50.570;10.428;2023-05-02T02:06:51;2.37;;;1.63;;
60032;SDS011;45905;50.570;10.428;2023-05-02T02:09:26;6.93;;;2.03;;
60032;SDS011;45905;50.570;10.428;2023-05-02T02:12:16;2.03;;;1.83;;
60032;SDS011;45905;50.570;10.428;2023-05-02T02:18:00;1.77;;;1.40;;
60032;SDS011;45905;50.570;10.428;2023-05-02T02:20:36;8.03;;;2.30;;
60032;SDS011;45905;50.570;10.428;2023-05-02T02:23:09;2.00;;;1.90;;
60032;SDS011;45905;50.570;10.428;2023-05-02T02:25:38;3.13;;;2.57;;
60032;SDS011;45905;50.570;10.428;2023-05-02T02:28:07;4.70;;;1.93;;
60032;SDS011;45905;50.570;10.428;2023-05-02T02:30:34;4.23;;;2.90;;
60032;SDS011;45905;50.570;10.428;2023-05-02T02:33:02;4.50;;;2.27;;
60032;SDS011;45905;50.570;10.428;2023-05-02T02:35:32;2.07;;;1.87;;
60032;SDS011;45905;50.570;10.428;2023-05-02T02:41:15;3.60;;;2.00;;
60032;SDS011;45905;50.570;10.428;2023-05-02T02:43:58;1.80;;;1.70;;
60032;SDS011;45905;50.570;10.428;2023-05-02T02:52:58;3.93;;;3.50;;
60032;SDS011;45905;50.570;10.428;2023-05-02T02:55:46;2.90;;;2.30;;
60032;SDS011;45905;50.570;10.428;2023-05-02T03:01:19;2.30;;;1.90;;
60032;SDS011;45905;50.570;10.428;2023-05-02T03:03:50;4.33;;;1.90;;
60032;SDS011;45905;50.570;10.428;2023-05-02T03:06:20;3.13;;;2.80;;
60032;SDS011;45905;50.570;10.428;2023-05-02T03:08:50;3.53;;;2.20;;
60032;SDS011;45905;50.570;10.428;2023-05-02T03:11:20;2.70;;;2.37;;
60032;SDS011;45905;50.570;10.428;2023-05-02T03:13:47;5.80;;;3.77;;
60032;SDS011;45905;50.570;10.428;2023-05-02T03:18:58;2.27;;;1.93;;
60032;SDS011;45905;50.570;10.428;2023-05-02T03:21:26;3.53;;;2.60;;
60032;SDS011;45905;50.570;10.428;2023-05-02T03:24:02;2.63;;;2.43;;
60032;SDS011;45905;50.570;10.428;2023-05-02T03:26:30;8.93;;;3.00;;
60032;SDS011;45905;50.570;10.428;2023-05-02T03:28:58;4.13;;;2.50;;
60032;SDS011;45905;50.570;10.428;2023-05-02T03:31:31;3.43;;;2.47;;
60032;SDS011;45905;50.570;10.428;2023-05-02T03:33:59;3.93;;;1.90;;
60032;SDS011;45905;50.570;10.428;2023-05-02T03:36:27;3.43;;;2.80;;
60032;SDS011;45905;50.570;10.428;2023-05-02T03:38:54;2.33;;;2.17;;
60032;SDS011;45905;50.570;10.428;2023-05-02T03:41:22;3.27;;;3.00;;
60032;SDS011;45905;50.570;10.428;2023-05-02T03:43:57;2.00;;;1.80;;
60032;SDS011;45905;50.570;10.428;2023-05-02T03:46:26;2.87;;;2.60;;
60032;SDS011;45905;50.570;10.428;2023-05-02T03:48:56;4.50;;;3.30;;
60032;SDS011;45905;50.570;10.428;2023-05-02T03:51:24;5.00;;;2.30;;
60032;SDS011;45905;50.570;10.428;2023-05-02T03:53:54;2.37;;;2.17;;
60032;SDS011;45905;50.570;10.428;2023-05-02T03:56:22;3.00;;;2.13;;
60032;SDS011;45905;50.570;10.428;2023-05-02T03:59:00;2.63;;;2.33;;
60032;SDS011;45905;50.570;10.428;2023-05-02T04:01:28;2.60;;;2.40;;
60032;SDS011;45905;50.570;10.428;2023-05-02T04:03:57;4.40;;;2.23;;
60032;SDS011;45905;50.570;10.428;2023-05-02T04:06:27;2.97;;;2.77;;
60032;SDS011;45905;50.570;10.428;2023-05-02T04:08:59;3.20;;;1.90;;
60032;SDS011;45905;50.570;10.428;2023-05-02T04:11:34;6.03;;;2.60;;
60032;SDS011;45905;50.570;10.428;2023-05-02T04:14:02;3.53;;;3.23;;
60032;SDS011;45905;50.570;10.428;2023-05-02T04:16:31;2.50;;;2.30;;
60032;SDS011;45905;50.570;10.428;2023-05-02T04:18:58;13.90;;;1.80;;
60032;SDS011;45905;50.570;10.428;2023-05-02T04:21:26;5.13;;;3.00;;
60032;SDS011;45905;50.570;10.428;2023-05-02T04:23:54;2.80;;;2.40;;
60032;SDS011;45905;50.570;10.428;2023-05-02T04:26:21;3.80;;;3.40;;
60032;SDS011;45905;50.570;10.428;2023-05-02T04:28:55;3.47;;;2.53;;
60032;SDS011;45905;50.570;10.428;2023-05-02T04:31:23;2.73;;;2.40;;
60032;SDS011;45905;50.570;10.428;2023-05-02T04:33:51;2.50;;;2.30;;
60032;SDS011;45905;50.570;10.428;2023-05-02T04:36:23;3.53;;;2.33;;
60032;SDS011;45905;50.570;10.428;2023-05-02T04:38:51;3.30;;;2.43;;
60032;SDS011;45905;50.570;10.428;2023-05-02T04:41:19;3.77;;;3.37;;
60032;SDS011;45905;50.570;10.428;2023-05-02T04:43:53;2.43;;;1.80;;
60032;SDS011;45905;50.570;10.428;2023-05-02T04:46:20;4.20;;;2.87;;
60032;SDS011;45905;50.570;10.428;2023-05-02T04:48:47;3.67;;;3.03;;
60032;SDS011;45905;50.570;10.428;2023-05-02T04:51:14;10.23;;;3.40;;
60032;SDS011;45905;50.570;10.428;2023-05-02T04:53:46;5.23;;;2.30;;
60032;SDS011;45905;50.570;10.428;2023-05-02T04:56:13;6.63;;;4.43;;
60032;SDS011;45905;50.570;10.428;2023-05-02T04:58:41;2.27;;;2.10;;
60032;SDS011;45905;50.570;10.428;2023-05-02T05:01:09;5.77;;;3.07;;
60032;SDS011;45905;50.570;10.428;2023-05-02T05:03:36;5.20;;;4.73;;
60032;SDS011;45905;50.570;10.428;2023-05-02T05:06:05;4.87;;;4.20;;
60032;SDS011;45905;50.570;10.428;2023-05-02T05:08:32;9.60;;;5.27;;
60032;SDS011;45905;50.570;10.428;2023-05-02T05:11:01;5.50;;;3.93;;
60032;SDS011;45905;50.570;10.428;2023-05-02T05:13:31;4.63;;;4.23;;
60032;SDS011;45905;50.570;10.428;2023-05-02T05:15:58;4.17;;;3.67;;
60032;SDS011;45905;50.570;10.428;2023-05-02T05:18:29;5.93;;;3.23;;
60032;SDS011;45905;50.570;10.428;2023-05-02T05:20:57;5.90;;;3.53;;
60032;SDS011;45905;50.570;10.428;2023-05-02T05:23:25;6.37;;;3.57;;
60032;SDS011;45905;50.570;10.428;2023-05-02T05:25:53;6.87;;;3.93;;
60032;SDS011;45905;50.570;10.428;2023-05-02T05:28:20;10.00;;;3.60;;
60032;SDS011;45905;50.570;10.428;2023-05-02T05:30:47;4.80;;;4.40;;
60032;SDS011;45905;50.570;10.428;2023-05-02T05:33:18;3.33;;;3.03;;
60032;SDS011;45905;50.570;10.428;2023-05-02T05:35:47;9.60;;;4.27;;
60032;SDS011;45905;50.570;10.428;2023-05-02T05:38:14;13.57;;;6.70;;
60032;SDS011;45905;50.570;10.428;2023-05-02T05:40:44;13.50;;;6.57;;
60032;SDS011;45905;50.570;10.428;2023-05-02T05:43:14;10.93;;;6.23;;
60032;SDS011;45905;50.570;10.428;2023-05-02T05:45:42;7.77;;;4.40;;
60032;SDS011;45905;50.570;10.428;2023-05-02T05:48:09;13.83;;;4.33;;
60032;SDS011;45905;50.570;10.428;2023-05-02T05:50:40;7.03;;;3.83;;
60032;SDS011;45905;50.570;10.428;2023-05-02T05:53:08;13.10;;;5.10;;
60032;SDS011;45905;50.570;10.428;2023-05-02T05:55:38;4.60;;;2.90;;
60032;SDS011;45905;50.570;10.428;2023-05-02T05:58:08;8.53;;;5.63;;
60032;SDS011;45905;50.570;10.428;2023-05-02T06:00:37;5.43;;;4.07;;
60032;SDS011;45905;50.570;10.428;2023-05-02T06:03:05;8.83;;;3.73;;
60032;SDS011;45905;50.570;10.428;2023-05-02T06:05:35;3.83;;;3.33;;
60032;SDS011;45905;50.570;10.428;2023-05-02T06:08:03;6.10;;;4.10;;
60032;SDS011;45905;50.570;10.428;2023-05-02T06:10:31;4.70;;;3.50;;
60032;SDS011;45905;50.570;10.428;2023-05-02T06:12:58;4.30;;;3.73;;
60032;SDS011;45905;50.570;10.428;2023-05-02T06:15:32;6.60;;;3.20;;
60032;SDS011;45905;50.570;10.428;2023-05-02T06:18:02;8.20;;;4.07;;
60032;SDS011;45905;50.570;10.428;2023-05-02T06:20:29;5.23;;;4.83;;
60032;SDS011;45905;50.570;10.428;2023-05-02T06:22:57;6.07;;;3.40;;
60032;SDS011;45905;50.570;10.428;2023-05-02T06:25:25;6.20;;;3.83;;
60032;SDS011;45905;50.570;10.428;2023-05-02T06:27:52;6.73;;;4.00;;
60032;SDS011;45905;50.570;10.428;2023-05-02T06:30:19;3.10;;;2.80;;
60032;SDS011;45905;50.570;10.428;2023-05-02T06:32:47;4.67;;;3.53;;
60032;SDS011;45905;50.570;10.428;2023-05-02T06:35:14;5.90;;;4.47;;
60032;SDS011;45905;50.570;10.428;2023-05-02T06:37:42;5.27;;;4.30;;
60032;SDS011;45905;50.570;10.428;2023-05-02T06:40:09;7.23;;;3.50;;
60032;SDS011;45905;50.570;10.428;2023-05-02T06:42:38;3.83;;;3.27;;
60032;SDS011;45905;50.570;10.428;2023-05-02T06:45:06;2.90;;;2.70;;
60032;SDS011;45905;50.570;10.428;2023-05-02T06:47:33;9.90;;;4.77;;
60032;SDS011;45905;50.570;10.428;2023-05-02T06:50:01;5.67;;;3.70;;
60032;SDS011;45905;50.570;10.428;2023-05-02T06:52:29;2.43;;;2.23;;
60032;SDS011;45905;50.570;10.428;2023-05-02T06:54:56;4.33;;;3.80;;
60032;SDS011;45905;50.570;10.428;2023-05-02T06:57:24;5.40;;;3.30;;
60032;SDS011;45905;50.570;10.428;2023-05-02T06:59:52;4.00;;;3.43;;
60032;SDS011;45905;50.570;10.428;2023-05-02T07:02:19;6.77;;;4.40;;
60032;SDS011;45905;50.570;10.428;2023-05-02T07:04:47;5.67;;;3.60;;
60032;SDS011;45905;50.570;10.428;2023-05-02T07:07:15;8.33;;;4.87;;
60032;SDS011;45905;50.570;10.428;2023-05-02T07:09:44;6.37;;;4.67;;
60032;SDS011;45905;50.570;10.428;2023-05-02T07:12:11;6.03;;;3.83;;
60032;SDS011;45905;50.570;10.428;2023-05-02T07:14:39;4.90;;;4.07;;
60032;SDS011;45905;50.570;10.428;2023-05-02T07:17:07;9.23;;;5.30;;
60032;SDS011;45905;50.570;10.428;2023-05-02T07:19:35;9.87;;;4.93;;
60032;SDS011;45905;50.570;10.428;2023-05-02T07:22:02;6.80;;;4.00;;
60032;SDS011;45905;50.570;10.428;2023-05-02T07:24:30;10.77;;;4.93;;
60032;SDS011;45905;50.570;10.428;2023-05-02T07:26:57;5.43;;;4.83;;
60032;SDS011;45905;50.570;10.428;2023-05-02T07:29:25;5.47;;;3.80;;
60032;SDS011;45905;50.570;10.428;2023-05-02T07:31:52;6.20;;;4.60;;
60032;SDS011;45905;50.570;10.428;2023-05-02T07:34:20;9.50;;;4.90;;
60032;SDS011;45905;50.570;10.428;2023-05-02T07:36:47;6.00;;;4.37;;
60032;SDS011;45905;50.570;10.428;2023-05-02T07:39:15;10.70;;;5.33;;
60032;SDS011;45905;50.570;10.428;2023-05-02T07:41:43;12.23;;;4.97;;
60032;SDS011;45905;50.570;10.428;2023-05-02T07:44:10;14.67;;;5.73;;
60032;SDS011;45905;50.570;10.428;2023-05-02T07:46:37;11.50;;;7.13;;
60032;SDS011;45905;50.570;10.428;2023-05-02T07:49:05;13.53;;;6.10;;
60032;SDS011;45905;50.570;10.428;2023-05-02T07:51:33;13.73;;;6.63;;
60032;SDS011;45905;50.570;10.428;2023-05-02T07:54:00;7.63;;;3.70;;
60032;SDS011;45905;50.570;10.428;2023-05-02T07:56:28;8.37;;;5.03;;
60032;SDS011;45905;50.570;10.428;2023-05-02T07:58:56;11.57;;;4.93;;
60032;SDS011;45905;50.570;10.428;2023-05-02T08:01:23;7.40;;;4.67;;
60032;SDS011;45905;50.570;10.428;2023-05-02T08:03:51;6.73;;;4.70;;
60032;SDS011;45905;50.570;10.428;2023-05-02T08:06:19;8.80;;;5.50;;
60032;SDS011;45905;50.570;10.428;2023-05-02T08:08:46;8.67;;;5.27;;
60032;SDS011;45905;50.570;10.428;2023-05-02T08:11:13;8.07;;;5.40;;
60032;SDS011;45905;50.570;10.428;2023-05-02T08:13:41;9.60;;;4.97;;
60032;SDS011;45905;50.570;10.428;2023-05-02T08:16:09;5.87;;;5.10;;
60032;SDS011;45905;50.570;10.428;2023-05-02T08:18:36;8.87;;;5.33;;
60032;SDS011;45905;50.570;10.428;2023-05-02T08:21:04;12.33;;;7.50;;
60032;SDS011;45905;50.570;10.428;2023-05-02T08:23:31;13.47;;;7.23;;
60032;SDS011;45905;50.570;10.428;2023-05-02T08:25:59;12.43;;;7.93;;
60032;SDS011;45905;50.570;10.428;2023-05-02T08:28:26;18.90;;;8.90;;
60032;SDS011;45905;50.570;10.428;2023-05-02T08:30:54;23.93;;;11.40;;
60032;SDS011;45905;50.570;10.428;2023-05-02T08:33:22;23.77;;;9.70;;
60032;SDS011;45905;50.570;10.428;2023-05-02T08:35:49;14.97;;;6.60;;
60032;SDS011;45905;50.570;10.428;2023-05-02T08:38:16;20.77;;;8.50;;
60032;SDS011;45905;50.570;10.428;2023-05-02T08:40:44;15.63;;;9.00;;
60032;SDS011;45905;50.570;10.428;2023-05-02T08:43:11;23.40;;;11.17;;
60032;SDS011;45905;50.570;10.428;2023-05-02T08:45:42;18.07;;;9.00;;
60032;SDS011;45905;50.570;10.428;2023-05-02T08:48:11;16.87;;;8.37;;
60032;SDS011;45905;50.570;10.428;2023-05-02T08:50:41;29.10;;;10.40;;
60032;SDS011;45905;50.570;10.428;2023-05-02T08:53:11;16.57;;;8.37;;
60032;SDS011;45905;50.570;10.428;2023-05-02T08:55:40;21.50;;;9.10;;
60032;SDS011;45905;50.570;10.428;2023-05-02T08:58:09;20.03;;;8.30;;
60032;SDS011;45905;50.570;10.428;2023-05-02T09:00:39;18.17;;;7.83;;
60032;SDS011;45905;50.570;10.428;2023-05-02T09:05:40;23.07;;;8.20;;
60032;SDS011;45905;50.570;10.428;2023-05-02T09:08:07;15.33;;;8.37;;
60032;SDS011;45905;50.570;10.428;2023-05-02T09:10:35;17.17;;;8.53;;
60032;SDS011;45905;50.570;10.428;2023-05-02T09:16:03;14.30;;;7.23;;
60032;SDS011;45905;50.570;10.428;2023-05-02T09:18:37;10.97;;;6.60;;
60032;SDS011;45905;50.570;10.428;2023-05-02T09:21:26;14.77;;;7.57;;
60032;SDS011;45905;50.570;10.428;2023-05-02T09:24:18;22.57;;;8.80;;
60032;SDS011;45905;50.570;10.428;2023-05-02T09:26:58;20.30;;;7.70;;
60032;SDS011;45905;50.570;10.428;2023-05-02T09:29:28;12.43;;;6.50;;
60032;SDS011;45905;50.570;10.428;2023-05-02T09:32:03;13.93;;;6.60;;
60032;SDS011;45905;50.570;10.428;2023-05-02T09:34:32;12.13;;;6.70;;
60032;SDS011;45905;50.570;10.428;2023-05-02T09:37:00;12.50;;;7.73;;
60032;SDS011;45905;50.570;10.428;2023-05-02T09:39:29;16.57;;;7.53;;
60032;SDS011;45905;50.570;10.428;2023-05-02T09:41:57;13.00;;;7.17;;
60032;SDS011;45905;50.570;10.428;2023-05-02T09:44:26;10.87;;;6.67;;
60032;SDS011;45905;50.570;10.428;2023-05-02T09:47:02;13.73;;;5.50;;
60032;SDS011;45905;50.570;10.428;2023-05-02T09:49:39;10.67;;;5.50;;
60032;SDS011;45905;50.570;10.428;2023-05-02T09:52:13;16.47;;;6.23;;
60032;SDS011;45905;50.570;10.428;2023-05-02T09:54:42;25.20;;;6.73;;
60032;SDS011;45905;50.570;10.428;2023-05-02T09:57:12;16.37;;;6.73;;
60032;SDS011;45905;50.570;10.428;2023-05-02T09:59:39;13.90;;;5.80;;
60032;SDS011;45905;50.570;10.428;2023-05-02T10:02:08;16.17;;;6.40;;
60032;SDS011;45905;50.570;10.428;2023-05-02T10:04:37;7.97;;;5.10;;
60032;SDS011;45905;50.570;10.428;2023-05-02T10:07:06;14.17;;;5.70;;
60032;SDS011;45905;50.570;10.428;2023-05-02T10:09:36;11.67;;;6.63;;
60032;SDS011;45905;50.570;10.428;2023-05-02T10:12:13;16.50;;;5.80;;
60032;SDS011;45905;50.570;10.428;2023-05-02T10:14:44;10.50;;;5.20;;
60032;SDS011;45905;50.570;10.428;2023-05-02T10:17:21;10.30;;;4.67;;
60032;SDS011;45905;50.570;10.428;2023-05-02T10:19:58;20.43;;;6.10;;
60032;SDS011;45905;50.570;10.428;2023-05-02T10:22:30;6.70;;;4.57;;
60032;SDS011;45905;50.570;10.428;2023-05-02T10:25:01;8.50;;;6.60;;
60032;SDS011;45905;50.570;10.428;2023-05-02T10:27:30;14.67;;;5.70;;
60032;SDS011;45905;50.570;10.428;2023-05-02T10:29:59;16.90;;;4.90;;
60032;SDS011;45905;50.570;10.428;2023-05-02T10:32:29;14.77;;;6.60;;
60032;SDS011;45905;50.570;10.428;2023-05-02T10:35:03;14.43;;;5.63;;
60032;SDS011;45905;50.570;10.428;2023-05-02T10:37:33;19.40;;;6.53;;
60032;SDS011;45905;50.570;10.428;2023-05-02T10:40:03;15.40;;;5.97;;
60032;SDS011;45905;50.570;10.428;2023-05-02T10:42:43;9.27;;;5.47;;
60032;SDS011;45905;50.570;10.428;2023-05-02T10:45:29;12.10;;;4.30;;
60032;SDS011;45905;50.570;10.428;2023-05-02T10:48:47;16.83;;;5.47;;
60032;SDS011;45905;50.570;10.428;2023-05-02T10:53:23;7.20;;;3.93;;
60032;SDS011;45905;50.570;10.428;2023-05-02T10:58:42;8.63;;;4.53;;
60032;SDS011;45905;50.570;10.428;2023-05-02T11:04:01;10.17;;;3.60;;
60032;SDS011;45905;50.570;10.428;2023-05-02T11:06:34;10.53;;;5.87;;
60032;SDS011;45905;50.570;10.428;2023-05-02T11:11:48;9.60;;;4.07;;
60032;SDS011;45905;50.570;10.428;2023-05-02T11:19:27;12.67;;;4.83;;
60032;SDS011;45905;50.570;10.428;2023-05-02T11:24:46;9.70;;;5.23;;
60032;SDS011;45905;50.570;10.428;2023-05-02T11:30:06;8.30;;;4.43;;
60032;SDS011;45905;50.570;10.428;2023-05-02T11:35:21;3.50;;;3.20;;
60032;SDS011;45905;50.570;10.428;2023-05-02T11:40:24;10.10;;;4.07;;
60032;SDS011;45905;50.570;10.428;2023-05-02T11:42:53;4.27;;;2.77;;
60032;SDS011;45905;50.570;10.428;2023-05-02T11:45:21;6.67;;;3.70;;
60032;SDS011;45905;50.570;10.428;2023-05-02T11:47:59;5.70;;;3.07;;
60032;SDS011;45905;50.570;10.428;2023-05-02T11:50:26;5.30;;;2.87;;
60032;SDS011;45905;50.570;10.428;2023-05-02T11:52:55;4.97;;;3.20;;
60032;SDS011;45905;50.570;10.428;2023-05-02T11:55:22;3.67;;;2.17;;
60032;SDS011;45905;50.570;10.428;2023-05-02T11:57:50;5.93;;;2.27;;
60032;SDS011;45905;50.570;10.428;2023-05-02T12:00:17;4.17;;;3.27;;
60032;SDS011;45905;50.570;10.428;2023-05-02T12:02:45;2.80;;;2.17;;
60032;SDS011;45905;50.570;10.428;2023-05-02T12:05:14;3.27;;;2.00;;
60032;SDS011;45905;50.570;10.428;2023-05-02T12:07:53;6.43;;;2.60;;
60032;SDS011;45905;50.570;10.428;2023-05-02T12:10:20;4.67;;;2.37;;
60032;SDS011;45905;50.570;10.428;2023-05-02T12:12:48;3.70;;;2.30;;
60032;SDS011;45905;50.570;10.428;2023-05-02T12:15:16;6.77;;;3.07;;
60032;SDS011;45905;50.570;10.428;2023-05-02T12:17:45;5.40;;;2.73;;
60032;SDS011;45905;50.570;10.428;2023-05-02T12:20:14;4.50;;;2.23;;
60032;SDS011;45905;50.570;10.428;2023-05-02T12:22:43;4.57;;;2.13;;
60032;SDS011;45905;50.570;10.428;2023-05-02T12:25:10;2.93;;;1.90;;
60032;SDS011;45905;50.570;10.428;2023-05-02T12:27:38;3.40;;;1.50;;
60032;SDS011;45905;50.570;10.428;2023-05-02T12:30:05;2.43;;;1.60;;
60032;SDS011;45905;50.570;10.428;2023-05-02T12:32:34;2.57;;;1.60;;
60032;SDS011;45905;50.570;10.428;2023-05-02T12:35:02;3.00;;;1.60;;
60032;SDS011;45905;50.570;10.428;2023-05-02T12:37:30;1.63;;;1.00;;
60032;SDS011;45905;50.570;10.428;2023-05-02T12:39:57;2.90;;;1.40;;
60032;SDS011;45905;50.570;10.428;2023-05-02T12:42:25;1.77;;;1.43;;
60032;SDS011;45905;50.570;10.428;2023-05-02T12:44:53;4.03;;;1.40;;
60032;SDS011;45905;50.570;10.428;2023-05-02T12:47:22;3.47;;;1.90;;
60032;SDS011;45905;50.570;10.428;2023-05-02T12:49:50;2.57;;;1.63;;
60032;SDS011;45905;50.570;10.428;2023-05-02T12:55:20;2.97;;;1.57;;
60032;SDS011;45905;50.570;10.428;2023-05-02T12:58:04;3.53;;;1.60;;
60032;SDS011;45905;50.570;10.428;2023-05-02T13:00:39;6.77;;;2.10;;
60032;SDS011;45905;50.570;10.428;2023-05-02T13:03:10;2.60;;;1.63;;
60032;SDS011;45905;50.570;10.428;2023-05-02T13:05:38;2.80;;;1.43;;
60032;SDS011;45905;50.570;10.428;2023-05-02T13:08:06;4.10;;;1.60;;
60032;SDS011;45905;50.570;10.428;2023-05-02T13:10:33;2.60;;;1.23;;
60032;SDS011;45905;50.570;10.428;2023-05-02T13:13:00;1.73;;;1.23;;
60032;SDS011;45905;50.570;10.428;2023-05-02T13:15:28;1.30;;;0.93;;
60032;SDS011;45905;50.570;10.428;2023-05-02T13:17:55;1.07;;;0.90;;
60032;SDS011;45905;50.570;10.428;2023-05-02T13:20:22;3.63;;;1.70;;
60032;SDS011;45905;50.570;10.428;2023-05-02T13:22:49;2.63;;;1.13;;
60032;SDS011;45905;50.570;10.428;2023-05-02T13:25:16;1.90;;;1.33;;
60032;SDS011;45905;50.570;10.428;2023-05-02T13:27:44;1.63;;;1.00;;
60032;SDS011;45905;50.570;10.428;2023-05-02T13:30:11;1.97;;;1.10;;
60032;SDS011;45905;50.570;10.428;2023-05-02T13:32:39;1.47;;;1.03;;
60032;SDS011;45905;50.570;10.428;2023-05-02T13:35:07;2.33;;;1.13;;
60032;SDS011;45905;50.570;10.428;2023-05-02T13:37:39;1.20;;;0.90;;
60032;SDS011;45905;50.570;10.428;2023-05-02T13:40:07;1.50;;;0.83;;
60032;SDS011;45905;50.570;10.428;2023-05-02T13:42:34;3.30;;;1.80;;
60032;SDS011;45905;50.570;10.428;2023-05-02T13:45:02;1.60;;;1.50;;
60032;SDS011;45905;50.570;10.428;2023-05-02T13:47:31;5.70;;;1.80;;
60032;SDS011;45905;50.570;10.428;2023-05-02T13:49:59;3.03;;;1.47;;
60032;SDS011;45905;50.570;10.428;2023-05-02T13:52:26;1.47;;;1.03;;
60032;SDS011;45905;50.570;10.428;2023-05-02T13:54:53;1.80;;;1.57;;
60032;SDS011;45905;50.570;10.428;2023-05-02T13:57:20;5.00;;;1.30;;
60032;SDS011;45905;50.570;10.428;2023-05-02T13:59:47;2.80;;;1.00;;
60032;SDS011;45905;50.570;10.428;2023-05-02T14:02:14;1.63;;;1.10;;
60032;SDS011;45905;50.570;10.428;2023-05-02T14:04:42;1.33;;;1.10;;
60032;SDS011;45905;50.570;10.428;2023-05-02T14:07:09;1.30;;;1.03;;
60032;SDS011;45905;50.570;10.428;2023-05-02T14:09:36;1.83;;;1.03;;
60032;SDS011;45905;50.570;10.428;2023-05-02T14:12:04;5.30;;;1.53;;
60032;SDS011;45905;50.570;10.428;2023-05-02T14:14:31;1.20;;;1.10;;
60032;SDS011;45905;50.570;10.428;2023-05-02T14:16:58;2.23;;;1.10;;
60032;SDS011;45905;50.570;10.428;2023-05-02T14:19:28;1.20;;;0.63;;
60032;SDS011;45905;50.570;10.428;2023-05-02T14:21:55;1.47;;;0.70;;
60032;SDS011;45905;50.570;10.428;2023-05-02T14:24:22;0.93;;;0.80;;
60032;SDS011;45905;50.570;10.428;2023-05-02T14:26:49;1.57;;;0.80;;
60032;SDS011;45905;50.570;10.428;2023-05-02T14:29:16;1.23;;;0.97;;
60032;SDS011;45905;50.570;10.428;2023-05-02T14:31:45;2.40;;;1.33;;
60032;SDS011;45905;50.570;10.428;2023-05-02T14:34:12;1.10;;;0.90;;
60032;SDS011;45905;50.570;10.428;2023-05-02T14:36:39;2.23;;;1.10;;
60032;SDS011;45905;50.570;10.428;2023-05-02T14:39:06;1.40;;;1.03;;
60032;SDS011;45905;50.570;10.428;2023-05-02T14:41:33;1.50;;;1.30;;
60032;SDS011;45905;50.570;10.428;2023-05-02T14:44:01;1.93;;;1.73;;
60032;SDS011;45905;50.570;10.428;2023-05-02T14:46:29;2.20;;;1.70;;
60032;SDS011;45905;50.570;10.428;2023-05-02T14:48:56;2.13;;;0.70;;
60032;SDS011;45905;50.570;10.428;2023-05-02T14:51:23;3.20;;;1.00;;
60032;SDS011;45905;50.570;10.428;2023-05-02T14:53:50;2.27;;;1.50;;
60032;SDS011;45905;50.570;10.428;2023-05-02T14:56:17;1.93;;;1.20;;
60032;SDS011;45905;50.570;10.428;2023-05-02T14:58:45;2.40;;;1.73;;
60032;SDS011;45905;50.570;10.428;2023-05-02T15:01:19;3.67;;;1.50;;
60032;SDS011;45905;50.570;10.428;2023-05-02T15:03:48;1.70;;;1.00;;
60032;SDS011;45905;50.570;10.428;2023-05-02T15:06:32;4.40;;;1.13;;
60032;SDS011;45905;50.570;10.428;2023-05-02T15:09:01;2.50;;;1.10;;
60032;SDS011;45905;50.570;10.428;2023-05-02T15:11:28;1.53;;;1.10;;
60032;SDS011;45905;50.570;10.428;2023-05-02T15:13:56;2.93;;;1.43;;
60032;SDS011;45905;50.570;10.428;2023-05-02T15:16:25;2.07;;;1.00;;
60032;SDS011;45905;50.570;10.428;2023-05-02T15:18:53;3.23;;;1.13;;
60032;SDS011;45905;50.570;10.428;2023-05-02T15:21:20;4.40;;;1.60;;
60032;SDS011;45905;50.570;10.428;2023-05-02T15:23:48;2.07;;;1.40;;
60032;SDS011;45905;50.570;10.428;2023-05-02T15:26:15;2.93;;;1.53;;
60032;SDS011;45905;50.570;10.428;2023-05-02T15:28:42;1.90;;;0.93;;
60032;SDS011;45905;50.570;10.428;2023-05-02T15:31:10;1.50;;;1.23;;
60032;SDS011;45905;50.570;10.428;2023-05-02T15:33:37;3.50;;;1.70;;
60032;SDS011;45905;50.570;10.428;2023-05-02T15:36:04;4.17;;;1.70;;
60032;SDS011;45905;50.570;10.428;2023-05-02T15:38:32;1.40;;;1.20;;
60032;SDS011;45905;50.570;10.428;2023-05-02T15:41:08;3.07;;;1.53;;
60032;SDS011;45905;50.570;10.428;2023-05-02T15:43:39;1.57;;;1.17;;
60032;SDS011;45905;50.570;10.428;2023-05-02T15:46:06;1.60;;;1.07;;
60032;SDS011;45905;50.570;10.428;2023-05-02T15:48:33;1.87;;;1.30;;
60032;SDS011;45905;50.570;10.428;2023-05-02T15:51:00;1.70;;;1.60;;